ETNT Airport Information

Runway Information
Runway 08 Length 8005 ft width 98 ft
Elevation 23 ft Threshold 0 ft Heading 78
Runway 26 Length 8005 ft Width 98 ft
Elevation 19 ft Threshold 0 ft Heading 258
Airport Frequencies
Type ACC Name BREMEN CON Frequency 124.075 MHZ
Type RDR Name WITTMUND R Frequency 25.87 MHZ
Type RDR Name WITTMUND R Frequency 36.89 MHZ
Type RDR Name WITTMUND R Frequency 123.3 MHZ
Type TWR Name WITTMUND T Frequency 118.725 MHZ
Airport Navaids
Airport Weather Information & NOTAM
ADDS - METARS form results

(1133 UTC 21 April 2018)
 
METAR text: ETNT 211120Z 36006KT 9999 FEW032 16/07 Q1023 BLU+
Conditions at: ETNT (WITTMUNDHAVEN(GA, DE) observed 1120 UTC 21 April 2018
Temperature: 16.0°C (61°F)
Dewpoint: 7.0°C (45°F) [RH = 55%]
Pressure (altimeter): 30.21 inches Hg (1023.0 mb)
Winds: from the N (360 degrees) at 7 MPH (6 knots; 3.1 m/s)
Visibility: 6 or more miles (10+ km)
Ceiling: at least 12,000 feet AGL
Clouds: few clouds at 3200 feet AGL
Weather: no significant weather observed at this time